Time;durP1;ratioP1;P1;durP2;ratioP2;P2;SDS_P1;SDS_P2;PMS_P1;PMS_P2;Temp;Humidity;BMP_temperature;BMP_pressure;BME280_temperature;BME280_humidity;BME280_pressure;Samples;Min_cycle;Max_cycle;Signal;HPM_P1;HPM_P2
2021/07/11 00:00:09;;;;;;;2.40;1.17;;;20.90;68.50;;;;;;2314071;56;20963;-69
2021/07/11 00:02:36;;;;;;;2.42;1.10;;;20.90;68.60;;;;;;2235146;56;21507;-69
2021/07/11 00:05:16;;;;;;;2.37;1.10;;;20.90;68.70;;;;;;2218544;56;21809;-72
2021/07/11 00:07:42;;;;;;;2.70;1.08;;;20.90;68.80;;;;;;2232658;56;21033;-72
2021/07/11 00:10:10;;;;;;;2.33;0.90;;;20.90;68.80;;;;;;2235809;55;21011;-72
2021/07/11 00:12:37;;;;;;;2.92;1.15;;;20.90;68.80;;;;;;2224770;57;21069;-69
2021/07/11 00:15:05;;;;;;;3.90;1.15;;;20.90;68.90;;;;;;2402161;55;20945;-71
2021/07/11 00:17:32;;;;;;;2.10;1.00;;;20.90;68.90;;;;;;2239903;56;20977;-74
2021/07/11 00:20:01;;;;;;;2.78;1.20;;;20.90;69.30;;;;;;2226182;56;21031;-70
2021/07/11 00:22:27;;;;;;;3.67;1.08;;;20.90;69.10;;;;;;2252956;56;20959;-70
2021/07/11 00:24:54;;;;;;;2.20;1.20;;;20.90;69.10;;;;;;2461383;55;21046;-69
2021/07/11 00:27:20;;;;;;;1.92;1.00;;;20.90;69.20;;;;;;2222172;55;21029;-69
2021/07/11 00:29:46;;;;;;;2.28;0.85;;;20.90;69.20;;;;;;2457879;56;21832;-68
2021/07/11 00:32:13;;;;;;;2.45;1.02;;;20.90;69.40;;;;;;2239288;56;21065;-72
2021/07/11 00:34:39;;;;;;;2.90;1.00;;;20.90;69.60;;;;;;2226723;56;21005;-70
2021/07/11 00:37:06;;;;;;;2.97;1.15;;;20.90;69.60;;;;;;2234065;56;20989;-70
2021/07/11 00:39:32;;;;;;;2.47;1.02;;;20.90;69.60;;;;;;2451109;56;21028;-69
2021/07/11 00:42:01;;;;;;;2.92;1.10;;;20.90;69.60;;;;;;2244898;56;20997;-71
2021/07/11 00:44:27;;;;;;;2.40;1.08;;;20.90;69.60;;;;;;2245905;55;21027;-71
2021/07/11 00:46:55;;;;;;;2.12;0.98;;;20.90;69.70;;;;;;2248240;56;20970;-69
2021/07/11 00:49:21;;;;;;;2.35;1.17;;;20.90;69.70;;;;;;2246575;56;21007;-70
2021/07/11 00:51:48;;;;;;;2.42;1.20;;;21.00;69.90;;;;;;2223810;56;20983;-69
2021/07/11 00:54:15;;;;;;;2.80;1.30;;;20.90;69.80;;;;;;2428484;55;21516;-70
2021/07/11 00:56:44;;;;;;;2.28;1.05;;;20.90;69.80;;;;;;2460619;55;21499;-72
2021/07/11 00:59:11;;;;;;;2.42;1.12;;;21.00;69.90;;;;;;2222750;56;21011;-71
2021/07/11 01:02:26;;;;;;;2.08;0.98;;;20.90;69.90;;;;;;2246861;56;21009;-70
2021/07/11 01:04:56;;;;;;;3.03;1.30;;;20.90;69.80;;;;;;2248929;56;21110;-69
2021/07/11 01:07:45;;;;;;;2.20;1.00;;;21.00;69.90;;;;;;2222151;57;20961;-68
2021/07/11 01:10:32;;;;;;;1.92;0.95;;;21.00;69.60;;;;;;2244125;56;21003;-71
2021/07/11 01:12:58;;;;;;;2.55;1.25;;;21.00;69.70;;;;;;2223531;57;22032;-69
2021/07/11 01:15:25;;;;;;;4.25;1.30;;;20.90;69.70;;;;;;2435241;55;20965;-70
2021/07/11 01:17:53;;;;;;;3.00;1.58;;;20.90;69.70;;;;;;2279415;56;20957;-72
2021/07/11 01:20:39;;;;;;;3.37;1.00;;;20.90;69.80;;;;;;2434386;56;20965;-71
2021/07/11 01:23:08;;;;;;;2.55;1.12;;;20.90;69.80;;;;;;2373307;57;20964;-74
2021/07/11 01:25:52;;;;;;;2.65;1.20;;;20.90;70.00;;;;;;2221662;56;21879;-69
2021/07/11 01:28:20;;;;;;;1.80;0.93;;;20.90;69.80;;;;;;2171217;57;21065;-71
2021/07/11 01:30:48;;;;;;;2.45;1.10;;;20.90;70.10;;;;;;2245516;56;21049;-69
2021/07/11 01:33:15;;;;;;;1.70;0.73;;;20.90;70.10;;;;;;2243934;56;21796;-71
2021/07/11 01:35:43;;;;;;;1.62;0.82;;;21.00;70.30;;;;;;2242563;56;21074;-70
2021/07/11 01:38:10;;;;;;;2.10;0.95;;;20.90;70.20;;;;;;2246672;56;20998;-70
2021/07/11 01:40:36;;;;;;;2.17;1.00;;;20.90;70.30;;;;;;2459963;55;21065;-71
2021/07/11 01:43:02;;;;;;;3.35;1.02;;;20.90;70.20;;;;;;2240182;56;21047;-70
2021/07/11 01:45:29;;;;;;;2.70;1.15;;;21.00;70.30;;;;;;2248109;56;21715;-72
2021/07/11 01:47:55;;;;;;;2.50;1.23;;;21.00;70.30;;;;;;2243124;56;20997;-69
2021/07/11 01:50:22;;;;;;;2.55;1.10;;;20.90;70.10;;;;;;2243224;56;20970;-72
2021/07/11 01:52:50;;;;;;;2.30;1.23;;;20.90;70.20;;;;;;2250643;56;21429;-70
2021/07/11 01:55:17;;;;;;;2.78;1.42;;;20.90;70.20;;;;;;2463922;56;20976;-71
2021/07/11 01:57:44;;;;;;;2.03;0.98;;;20.90;70.20;;;;;;2245016;56;20990;-70
2021/07/11 02:00:13;;;;;;;2.25;0.98;;;21.00;70.30;;;;;;2246603;56;21459;-70
2021/07/11 02:02:41;;;;;;;2.72;1.00;;;21.00;70.30;;;;;;2239142;56;20985;-71
2021/07/11 02:05:08;;;;;;;2.37;1.17;;;21.00;70.30;;;;;;2247159;56;20981;-69
2021/07/11 02:07:34;;;;;;;2.20;0.90;;;21.00;70.30;;;;;;2460049;55;20990;-71
2021/07/11 02:10:10;;;;;;;2.40;1.00;;;21.00;70.40;;;;;;2243060;56;20961;-70
2021/07/11 02:12:40;;;;;;;2.72;1.05;;;21.00;70.30;;;;;;2290756;55;20973;-71
2021/07/11 02:15:06;;;;;;;2.90;1.10;;;21.00;70.40;;;;;;2224227;56;21018;-70
2021/07/11 02:17:33;;;;;;;2.90;0.98;;;21.00;70.40;;;;;;2246294;56;21052;-69
2021/07/11 02:20:09;;;;;;;2.08;1.10;;;21.00;70.30;;;;;;2246908;56;20949;-69
2021/07/11 02:22:42;;;;;;;2.40;1.00;;;21.00;70.30;;;;;;2239456;56;20973;-69
2021/07/11 02:25:10;;;;;;;2.80;1.00;;;21.00;70.30;;;;;;2259855;56;21043;-70
2021/07/11 02:27:36;;;;;;;2.15;0.98;;;21.00;70.30;;;;;;2240519;56;21105;-71
2021/07/11 02:30:10;;;;;;;2.53;1.10;;;21.00;70.30;;;;;;2254336;55;21110;-70
2021/07/11 02:32:42;;;;;;;2.20;1.00;;;21.00;70.40;;;;;;2368462;55;20965;-69
2021/07/11 02:35:11;;;;;;;2.40;1.02;;;21.00;70.40;;;;;;2261954;56;20965;-70
2021/07/11 02:37:40;;;;;;;2.28;1.00;;;21.00;70.40;;;;;;2253832;56;21197;-70
2021/07/11 02:40:08;;;;;;;2.53;0.90;;;21.00;70.40;;;;;;2253180;55;21775;-70
2021/07/11 02:42:34;;;;;;;2.20;0.80;;;21.00;70.40;;;;;;2260424;56;21004;-68
2021/07/11 02:45:00;;;;;;;2.05;1.00;;;21.00;70.40;;;;;;2245419;56;21023;-72
2021/07/11 02:47:30;;;;;;;2.75;1.30;;;21.00;70.40;;;;;;2258202;56;20968;-70
2021/07/11 02:49:58;;;;;;;1.70;0.80;;;21.00;70.30;;;;;;2236282;56;21057;-68
2021/07/11 02:52:25;;;;;;;2.53;1.15;;;20.90;70.30;;;;;;2427692;55;20989;-69
2021/07/11 02:55:08;;;;;;;2.50;1.00;;;21.00;70.30;;;;;;2252540;56;20981;-68
2021/07/11 02:57:37;;;;;;;2.33;1.10;;;21.00;70.20;;;;;;2237630;56;20999;-70
2021/07/11 03:00:05;;;;;;;2.58;0.98;;;20.90;70.30;;;;;;2448116;55;21502;-70
2021/07/11 03:02:32;;;;;;;2.40;1.08;;;20.90;70.30;;;;;;2265838;56;21590;-70
2021/07/11 03:04:59;;;;;;;3.70;0.98;;;20.90;70.40;;;;;;2260868;55;20997;-70
2021/07/11 03:07:25;;;;;;;2.30;0.88;;;20.90;70.40;;;;;;2331525;55;20949;-71
2021/07/11 03:10:04;;;;;;;2.97;1.02;;;20.90;70.40;;;;;;2472091;55;21465;-70
2021/07/11 03:12:30;;;;;;;2.75;1.15;;;20.90;70.20;;;;;;2259247;56;21034;-71
2021/07/11 03:14:57;;;;;;;2.65;1.00;;;20.90;70.40;;;;;;2265165;55;21017;-70
2021/07/11 03:17:24;;;;;;;2.28;0.90;;;20.90;70.40;;;;;;2236989;56;20996;-72
2021/07/11 03:19:51;;;;;;;2.33;0.95;;;20.90;70.50;;;;;;2245825;56;20950;-74
2021/07/11 03:22:21;;;;;;;2.65;1.30;;;20.90;70.50;;;;;;2260369;56;20970;-69
2021/07/11 03:24:48;;;;;;;2.55;1.20;;;20.90;70.50;;;;;;2261938;56;21480;-69
2021/07/11 03:27:14;;;;;;;3.78;1.20;;;20.90;70.50;;;;;;2394236;55;21012;-74
2021/07/11 03:30:01;;;;;;;2.72;1.12;;;20.90;70.50;;;;;;2260004;55;21521;-70
2021/07/11 03:32:29;;;;;;;3.47;1.37;;;20.90;70.40;;;;;;2252359;56;21767;-71
2021/07/11 03:34:57;;;;;;;2.30;1.27;;;20.90;70.40;;;;;;2264047;55;20941;-71
2021/07/11 03:37:23;;;;;;;3.35;1.30;;;20.90;70.40;;;;;;2244019;56;20981;-69
2021/07/11 03:39:51;;;;;;;2.97;1.17;;;20.90;70.40;;;;;;2260131;55;21352;-70
2021/07/11 03:42:18;;;;;;;2.97;1.25;;;20.90;70.30;;;;;;2466312;55;21026;-69
2021/07/11 03:44:48;;;;;;;3.67;1.27;;;20.90;70.40;;;;;;2253098;56;20985;-70
2021/07/11 03:47:15;;;;;;;2.47;1.02;;;20.90;70.40;;;;;;2470724;55;21560;-71
2021/07/11 03:49:44;;;;;;;1.87;0.82;;;20.90;70.50;;;;;;2221743;56;21043;-72
2021/07/11 03:52:10;;;;;;;2.20;1.10;;;20.90;70.50;;;;;;2236138;55;21143;-73
2021/07/11 03:54:36;;;;;;;2.25;1.12;;;20.90;70.50;;;;;;2224719;56;20958;-74
2021/07/11 03:57:06;;;;;;;2.70;1.27;;;20.90;70.50;;;;;;2207123;57;21379;-70
2021/07/11 03:59:32;;;;;;;2.30;1.00;;;20.90;70.60;;;;;;2220314;57;21096;-70
2021/07/11 04:02:01;;;;;;;2.83;0.95;;;20.90;70.70;;;;;;2226790;57;21061;-70
2021/07/11 04:04:28;;;;;;;2.35;1.00;;;20.90;70.60;;;;;;2231573;57;20997;-74
2021/07/11 04:06:54;;;;;;;2.90;1.27;;;20.90;70.60;;;;;;2440682;56;20977;-72
2021/07/11 04:09:22;;;;;;;2.30;1.20;;;20.90;70.60;;;;;;2229744;56;21049;-71
2021/07/11 04:11:48;;;;;;;2.78;1.10;;;20.90;70.50;;;;;;2228744;57;21121;-70
2021/07/11 04:14:17;;;;;;;2.28;1.10;;;20.90;70.60;;;;;;2440121;56;21034;-69
2021/07/11 04:16:45;;;;;;;2.80;1.30;;;21.00;70.60;;;;;;2227809;56;20986;-70
2021/07/11 04:19:11;;;;;;;2.78;1.45;;;21.00;70.50;;;;;;2241544;56;21038;-70
2021/07/11 04:21:37;;;;;;;2.83;1.33;;;21.00;70.50;;;;;;2261926;55;21061;-70
2021/07/11 04:24:04;;;;;;;2.80;1.17;;;21.00;70.50;;;;;;2260031;56;21527;-74
2021/07/11 04:26:34;;;;;;;2.33;1.20;;;21.00;70.60;;;;;;2259679;56;21027;-70
2021/07/11 04:29:00;;;;;;;2.28;1.20;;;21.00;70.40;;;;;;2260702;55;21096;-69
2021/07/11 04:31:27;;;;;;;2.37;1.25;;;21.00;71.30;;;;;;2260866;56;21029;-70
2021/07/11 04:33:54;;;;;;;2.78;1.40;;;21.00;70.60;;;;;;2258370;56;21609;-68
2021/07/11 04:36:20;;;;;;;2.30;1.10;;;21.00;70.60;;;;;;2458696;55;22078;-70
2021/07/11 04:38:46;;;;;;;3.15;1.40;;;21.00;70.60;;;;;;2260075;56;21498;-70
2021/07/11 04:41:12;;;;;;;2.80;1.50;;;21.00;70.60;;;;;;2235117;56;21569;-70
2021/07/11 04:43:39;;;;;;;2.50;1.25;;;21.00;70.60;;;;;;2260203;55;21995;-69
2021/07/11 04:46:05;;;;;;;2.92;1.35;;;21.00;70.60;;;;;;2257763;56;21057;-70
2021/07/11 04:48:34;;;;;;;3.17;1.30;;;21.00;70.60;;;;;;2235002;56;21523;-70
2021/07/11 04:51:00;;;;;;;3.25;1.30;;;21.10;70.70;;;;;;2259832;56;21950;-74
2021/07/11 04:53:29;;;;;;;2.08;0.98;;;21.10;70.70;;;;;;2260967;55;21500;-67
2021/07/11 04:55:56;;;;;;;4.32;1.50;;;21.10;70.70;;;;;;2391479;57;21056;-69
2021/07/11 04:58:22;;;;;;;2.45;1.30;;;21.10;70.80;;;;;;2214503;56;20969;-73
2021/07/11 05:00:50;;;;;;;2.45;1.00;;;21.10;70.80;;;;;;2208013;56;21036;-70
2021/07/11 05:03:16;;;;;;;2.70;1.20;;;21.10;70.80;;;;;;2229054;56;21022;-71
2021/07/11 05:05:42;;;;;;;2.05;0.93;;;21.10;70.80;;;;;;2250709;56;20982;-70
2021/07/11 05:08:09;;;;;;;2.85;1.23;;;21.20;71.00;;;;;;2232924;56;21314;-69
2021/07/11 05:10:38;;;;;;;2.30;1.10;;;21.20;71.00;;;;;;2238646;56;20997;-71
2021/07/11 05:13:05;;;;;;;2.12;1.02;;;21.20;71.70;;;;;;2440300;56;20958;-72
2021/07/11 05:15:31;;;;;;;3.17;1.30;;;21.20;71.00;;;;;;2242446;56;20977;-70
2021/07/11 05:17:58;;;;;;;2.17;1.08;;;21.20;71.00;;;;;;2246005;56;21049;-73
2021/07/11 05:20:24;;;;;;;2.30;1.10;;;21.20;71.00;;;;;;2242495;56;21013;-70
2021/07/11 05:22:51;;;;;;;2.40;1.15;;;21.20;71.00;;;;;;2232896;56;21051;-69
2021/07/11 05:25:18;;;;;;;3.33;1.40;;;21.30;71.00;;;;;;2245315;56;21103;-69
2021/07/11 05:27:45;;;;;;;3.10;1.77;;;21.30;70.80;;;;;;2231590;56;22049;-72
2021/07/11 05:30:13;;;;;;;3.08;1.80;;;21.30;70.60;;;;;;2225918;56;21788;-69
2021/07/11 05:32:39;;;;;;;6.22;1.92;;;21.30;70.50;;;;;;2221822;56;20980;-70
2021/07/11 05:35:06;;;;;;;4.05;1.27;;;21.30;70.50;;;;;;2220201;56;21025;-72
2021/07/11 05:37:35;;;;;;;2.55;1.17;;;21.40;70.60;;;;;;2431378;56;21033;-70
2021/07/11 05:40:02;;;;;;;2.78;1.25;;;21.40;70.50;;;;;;2209797;57;21029;-71
2021/07/11 05:42:29;;;;;;;2.85;1.50;;;21.40;70.80;;;;;;2260610;56;21422;-70
2021/07/11 05:44:55;;;;;;;3.15;1.42;;;21.40;70.70;;;;;;2274772;55;21003;-70
2021/07/11 05:47:21;;;;;;;4.25;1.15;;;21.40;70.70;;;;;;2217178;57;21094;-70
2021/07/11 05:49:47;;;;;;;2.80;1.27;;;21.40;70.70;;;;;;2215211;56;21053;-72
2021/07/11 05:52:19;;;;;;;3.25;1.40;;;21.40;70.70;;;;;;2224394;56;21496;-70
2021/07/11 05:54:45;;;;;;;3.92;1.27;;;21.50;70.80;;;;;;2219848;55;21116;-70
2021/07/11 05:57:11;;;;;;;2.53;1.10;;;21.50;70.70;;;;;;2288269;56;21051;-72
2021/07/11 05:59:39;;;;;;;3.58;1.10;;;21.50;70.70;;;;;;2344783;56;21889;-71
2021/07/11 06:02:06;;;;;;;2.97;1.30;;;21.50;70.80;;;;;;2226529;56;20991;-70
2021/07/11 06:04:32;;;;;;;2.92;1.27;;;21.60;70.80;;;;;;2220653;56;21017;-69
2021/07/11 06:07:00;;;;;;;2.60;1.20;;;21.60;70.70;;;;;;2214921;57;20969;-70
2021/07/11 06:09:27;;;;;;;3.53;1.10;;;21.60;70.70;;;;;;2217968;56;21015;-70
2021/07/11 06:11:53;;;;;;;3.35;1.23;;;21.60;70.80;;;;;;2214633;57;20975;-70
2021/07/11 06:14:20;;;;;;;2.67;1.45;;;21.70;70.90;;;;;;2212920;57;20957;-70
2021/07/11 06:16:46;;;;;;;2.47;1.30;;;21.70;70.80;;;;;;2441747;56;21012;-73
2021/07/11 06:19:13;;;;;;;3.70;1.30;;;21.80;70.80;;;;;;2225866;56;21007;-69
2021/07/11 06:21:41;;;;;;;2.50;1.30;;;21.80;70.80;;;;;;2211324;57;20960;-70
2021/07/11 06:24:08;;;;;;;2.40;1.12;;;21.80;70.80;;;;;;2222173;56;21024;-71
2021/07/11 06:26:36;;;;;;;2.83;1.20;;;21.80;70.80;;;;;;2444538;56;21051;-70
2021/07/11 06:29:02;;;;;;;3.72;1.52;;;21.90;70.80;;;;;;2208090;56;20968;-70
2021/07/11 06:31:28;;;;;;;4.53;1.67;;;21.90;70.60;;;;;;2220097;56;20986;-74
2021/07/11 06:33:55;;;;;;;2.80;1.42;;;21.90;70.60;;;;;;2241662;55;21507;-71
2021/07/11 06:36:21;;;;;;;3.87;1.45;;;22.00;70.70;;;;;;2451238;56;21103;-69
2021/07/11 06:38:48;;;;;;;3.72;1.52;;;22.00;70.50;;;;;;2218782;57;21020;-71
2021/07/11 06:41:15;;;;;;;3.90;1.85;;;22.10;70.20;;;;;;2215249;56;20992;-70
2021/07/11 06:43:41;;;;;;;3.25;1.65;;;22.10;69.90;;;;;;2222246;57;20968;-71
2021/07/11 06:46:09;;;;;;;3.28;1.50;;;22.10;69.80;;;;;;2215711;56;21847;-72
2021/07/11 06:48:36;;;;;;;3.28;1.50;;;22.10;69.90;;;;;;2231774;55;20983;-73
2021/07/11 06:51:03;;;;;;;3.60;1.80;;;22.10;70.10;;;;;;2217612;57;21843;-70
2021/07/11 06:53:29;;;;;;;2.95;1.60;;;22.10;70.20;;;;;;2332252;55;21014;-70
2021/07/11 06:55:56;;;;;;;3.70;1.52;;;22.20;70.20;;;;;;2236694;55;21039;-68
2021/07/11 06:58:22;;;;;;;3.65;1.37;;;22.20;70.00;;;;;;2232844;56;21247;-73
2021/07/11 07:00:49;;;;;;;3.10;1.10;;;22.20;69.90;;;;;;2238637;57;21012;-70
2021/07/11 07:03:15;;;;;;;3.90;1.60;;;22.30;70.20;;;;;;2376361;56;21044;-72
2021/07/11 07:05:42;;;;;;;3.90;1.73;;;22.30;70.30;;;;;;2206301;57;21871;-70
2021/07/11 07:08:08;;;;;;;3.35;1.48;;;22.30;70.00;;;;;;2217541;57;20961;-71
2021/07/11 07:10:34;;;;;;;2.90;1.48;;;22.40;70.10;;;;;;2214756;57;21048;-74
2021/07/11 07:13:01;;;;;;;2.65;1.40;;;22.50;70.20;;;;;;2435815;55;21072;-70
2021/07/11 07:15:28;;;;;;;4.78;1.40;;;22.50;70.40;;;;;;2454925;55;21023;-69
2021/07/11 07:17:55;;;;;;;3.60;1.65;;;22.60;70.50;;;;;;2463790;56;21448;-70
2021/07/11 07:20:23;;;;;;;3.37;1.45;;;22.70;70.40;;;;;;2313179;56;21008;-70
2021/07/11 07:22:49;;;;;;;2.60;1.37;;;22.80;70.60;;;;;;2426836;55;20957;-71
2021/07/11 07:25:16;;;;;;;3.40;1.55;;;22.80;70.40;;;;;;2238854;56;21111;-72
2021/07/11 07:27:43;;;;;;;2.37;1.17;;;22.90;70.30;;;;;;2231979;57;20997;-71
2021/07/11 07:30:12;;;;;;;4.25;1.50;;;23.00;70.30;;;;;;2228195;56;21055;-74
2021/07/11 07:32:40;;;;;;;3.17;1.50;;;23.10;70.10;;;;;;2243413;56;21085;-70
2021/07/11 07:35:21;;;;;;;2.47;1.33;;;23.10;69.30;;;;;;2455313;56;20991;-69
2021/07/11 07:37:48;;;;;;;3.10;1.40;;;23.20;68.90;;;;;;2203282;57;20966;-71
2021/07/11 07:40:17;;;;;;;2.75;1.20;;;23.20;70.00;;;;;;2235159;56;21055;-70
2021/07/11 07:42:44;;;;;;;2.40;1.30;;;23.30;70.00;;;;;;2229401;56;20952;-70
2021/07/11 07:45:11;;;;;;;2.80;1.30;;;23.40;70.10;;;;;;2234278;56;21000;-70
2021/07/11 07:47:38;;;;;;;3.53;1.70;;;23.50;70.30;;;;;;2243254;56;21099;-71
2021/07/11 07:50:06;;;;;;;2.72;1.30;;;23.50;69.80;;;;;;2284693;55;20952;-70
2021/07/11 07:52:32;;;;;;;2.80;1.33;;;23.60;69.30;;;;;;2226960;56;20977;-73
2021/07/11 07:55:02;;;;;;;4.00;1.48;;;23.60;68.80;;;;;;2233324;56;21083;-70
2021/07/11 07:57:29;;;;;;;3.00;1.42;;;23.70;68.40;;;;;;2245799;56;21008;-70
2021/07/11 08:00:14;;;;;;;3.35;1.50;;;23.70;68.20;;;;;;2238331;56;21663;-69
2021/07/11 08:02:42;;;;;;;3.10;1.55;;;23.70;66.50;;;;;;2242501;56;20975;-70
2021/07/11 08:05:09;;;;;;;3.30;1.12;;;23.70;67.20;;;;;;2238721;56;21162;-71
2021/07/11 08:07:35;;;;;;;3.62;1.60;;;23.70;67.20;;;;;;2237411;56;20987;-69
2021/07/11 08:10:02;;;;;;;3.10;1.52;;;23.60;66.70;;;;;;2308546;56;21008;-68
2021/07/11 08:12:28;;;;;;;3.35;1.45;;;23.60;66.40;;;;;;2454987;56;21035;-69
2021/07/11 08:14:56;;;;;;;2.80;1.50;;;23.60;66.60;;;;;;2236116;56;21106;-71
2021/07/11 08:17:23;;;;;;;4.10;1.55;;;23.60;66.40;;;;;;2237715;57;20949;-70
2021/07/11 08:19:50;;;;;;;3.80;1.70;;;23.50;66.50;;;;;;2223473;57;21451;-70
2021/07/11 08:22:16;;;;;;;2.65;1.33;;;23.50;66.60;;;;;;2220390;57;21052;-70
2021/07/11 08:24:42;;;;;;;4.18;1.40;;;23.50;66.70;;;;;;2224318;56;20972;-69
2021/07/11 08:27:08;;;;;;;3.17;1.15;;;23.50;66.70;;;;;;2240490;55;21038;-69
2021/07/11 08:29:35;;;;;;;4.50;1.27;;;23.50;66.70;;;;;;2228668;56;20971;-68
2021/07/11 08:32:04;;;;;;;4.37;1.40;;;23.50;66.70;;;;;;2349685;55;21488;-70
2021/07/11 08:34:31;;;;;;;5.03;1.60;;;23.50;66.30;;;;;;2217813;57;21053;-69
2021/07/11 08:37:00;;;;;;;2.78;1.52;;;23.50;67.20;;;;;;2374330;56;21084;-70
2021/07/11 08:39:29;;;;;;;3.03;1.25;;;23.50;66.40;;;;;;2292468;56;20953;-69
2021/07/11 08:41:59;;;;;;;2.58;1.20;;;23.50;66.20;;;;;;2213582;57;20980;-70
2021/07/11 08:44:26;;;;;;;3.28;1.50;;;23.50;66.30;;;;;;2214046;57;20996;-71
2021/07/11 08:46:55;;;;;;;2.03;1.10;;;23.50;66.30;;;;;;2238511;56;20987;-69
2021/07/11 08:49:22;;;;;;;2.47;1.23;;;23.50;66.30;;;;;;2222720;56;21395;-69
2021/07/11 08:51:48;;;;;;;2.33;1.12;;;23.40;66.20;;;;;;2312411;55;20999;-70
2021/07/11 08:54:15;;;;;;;3.28;1.60;;;23.40;66.20;;;;;;2242105;56;20986;-71
2021/07/11 08:57:11;;;;;;;4.95;1.65;;;23.40;66.20;;;;;;2234111;56;21063;-71
2021/07/11 08:59:39;;;;;;;2.75;1.37;;;23.30;65.30;;;;;;2218877;56;21056;-70
2021/07/11 09:02:06;;;;;;;3.95;1.30;;;23.30;66.10;;;;;;2335076;56;21040;-69
2021/07/11 09:04:45;;;;;;;3.20;1.33;;;23.30;66.30;;;;;;2235941;57;21029;-71
2021/07/11 09:07:21;;;;;;;2.60;1.00;;;23.20;65.90;;;;;;2226057;56;20973;-71
2021/07/11 09:09:57;;;;;;;2.47;1.20;;;23.20;66.20;;;;;;2208234;57;21004;-73
2021/07/11 09:12:26;;;;;;;4.20;1.77;;;23.20;66.60;;;;;;2413031;56;20949;-71
2021/07/11 09:15:01;;;;;;;2.62;1.40;;;23.10;66.80;;;;;;2236162;56;20975;-70
2021/07/11 09:17:31;;;;;;;2.60;1.30;;;23.10;67.10;;;;;;2242008;56;21031;-71
2021/07/11 09:19:58;;;;;;;2.70;1.30;;;23.10;67.10;;;;;;2311831;56;20980;-71
2021/07/11 09:22:25;;;;;;;2.42;1.02;;;23.20;67.50;;;;;;2271115;56;21013;-72
2021/07/11 09:24:56;;;;;;;2.40;1.25;;;23.20;67.70;;;;;;2236407;56;21066;-70
2021/07/11 09:27:33;;;;;;;2.40;1.17;;;23.20;68.10;;;;;;2221804;56;20964;-70
2021/07/11 09:30:00;;;;;;;2.60;1.33;;;23.30;68.60;;;;;;2249307;56;21847;-70
2021/07/11 09:32:36;;;;;;;2.72;1.30;;;23.40;69.00;;;;;;2224068;56;21058;-68
2021/07/11 09:35:13;;;;;;;2.53;1.30;;;23.40;69.10;;;;;;2225129;56;21019;-71
2021/07/11 09:37:42;;;;;;;3.03;1.50;;;23.50;69.30;;;;;;2463637;56;20961;-73
2021/07/11 09:40:09;;;;;;;2.40;1.25;;;23.60;69.70;;;;;;2223300;57;21825;-70
2021/07/11 09:42:38;;;;;;;2.70;1.27;;;23.70;69.60;;;;;;2236967;56;20970;-72
2021/07/11 09:45:07;;;;;;;2.70;1.15;;;23.80;69.10;;;;;;2219146;56;20987;-70
2021/07/11 09:47:35;;;;;;;2.40;1.10;;;23.90;68.90;;;;;;2222835;57;20936;-72
2021/07/11 09:50:12;;;;;;;2.58;1.12;;;24.00;68.40;;;;;;2241830;56;21856;-71
2021/07/11 09:52:45;;;;;;;2.47;1.12;;;24.10;67.50;;;;;;2227716;57;21096;-69
2021/07/11 09:55:18;;;;;;;2.50;0.98;;;24.20;67.40;;;;;;2240421;56;20963;-72
2021/07/11 09:57:50;;;;;;;2.90;1.05;;;24.20;67.60;;;;;;2246936;56;21055;-71
2021/07/11 10:00:31;;;;;;;2.60;1.20;;;24.30;67.50;;;;;;2239667;56;20982;-70
2021/07/11 10:03:02;;;;;;;1.75;0.90;;;24.30;67.50;;;;;;2223522;56;20960;-71
2021/07/11 10:05:29;;;;;;;2.30;1.10;;;24.40;67.60;;;;;;2221995;57;21000;-71
2021/07/11 10:07:56;;;;;;;2.25;1.08;;;24.40;67.10;;;;;;2236499;56;21038;-69
2021/07/11 10:10:28;;;;;;;2.12;0.93;;;24.50;67.00;;;;;;2355168;55;21036;-70
2021/07/11 10:12:58;;;;;;;2.40;1.12;;;24.50;66.60;;;;;;2239177;56;20943;-70
2021/07/11 10:15:25;;;;;;;5.45;2.00;;;24.60;66.50;;;;;;2221209;56;21047;-71
2021/07/11 10:17:54;;;;;;;2.25;0.90;;;24.60;66.00;;;;;;2292234;56;20977;-70
2021/07/11 10:20:21;;;;;;;2.45;1.20;;;24.60;66.30;;;;;;2235544;56;21011;-71
2021/07/11 10:22:50;;;;;;;2.37;1.10;;;24.60;66.30;;;;;;2239426;56;21074;-70
2021/07/11 10:25:18;;;;;;;2.70;1.10;;;24.60;66.50;;;;;;2220268;56;21446;-70
2021/07/11 10:27:45;;;;;;;2.58;1.20;;;24.70;66.60;;;;;;2237040;56;21091;-69
2021/07/11 10:30:11;;;;;;;2.67;1.15;;;24.70;66.50;;;;;;2233154;55;21041;-73
2021/07/11 10:32:38;;;;;;;2.08;0.95;;;24.70;66.30;;;;;;2235643;56;21461;-70
2021/07/11 10:35:15;;;;;;;2.03;0.90;;;24.80;66.40;;;;;;2221021;56;21603;-71
2021/07/11 10:37:52;;;;;;;2.78;1.33;;;24.80;65.20;;;;;;2226721;57;20996;-70
2021/07/11 10:40:21;;;;;;;2.17;0.90;;;24.80;65.80;;;;;;2237295;56;21035;-74
2021/07/11 10:42:47;;;;;;;2.30;1.00;;;24.90;66.00;;;;;;2244535;56;21037;-72
2021/07/11 10:45:15;;;;;;;2.47;0.93;;;25.00;66.20;;;;;;2233287;57;21005;-71
2021/07/11 10:47:42;;;;;;;2.20;0.82;;;25.00;66.20;;;;;;2229186;56;20966;-71
2021/07/11 10:50:31;;;;;;;2.50;1.12;;;25.10;66.10;;;;;;2320174;56;21023;-70
2021/07/11 10:52:59;;;;;;;1.77;0.90;;;25.20;64.70;;;;;;2238133;56;20995;-71
2021/07/11 10:55:34;;;;;;;1.80;0.80;;;25.40;66.40;;;;;;2215600;56;21539;-72
2021/07/11 10:58:16;;;;;;;3.03;1.12;;;25.50;65.80;;;;;;2180644;58;21001;-72
2021/07/11 11:00:42;;;;;;;;;;;25.60;65.10;;;;;;2221568;56;21093;-70
2021/07/11 11:04:15;;;;;;;2.00;0.88;;;25.70;65.10;;;;;;2222650;56;20075;-74
2021/07/11 11:06:41;;;;;;;2.45;1.20;;;25.80;64.10;;;;;;2242995;56;21392;-70
2021/07/11 11:09:09;;;;;;;1.87;0.90;;;25.90;65.00;;;;;;2242103;56;21805;-70
2021/07/11 11:11:36;;;;;;;2.10;1.00;;;25.80;64.40;;;;;;2242269;56;21030;-71
2021/07/11 11:14:03;;;;;;;1.77;0.90;;;25.80;64.10;;;;;;2458434;55;21352;-72
2021/07/11 11:16:40;;;;;;;1.65;0.80;;;25.80;63.90;;;;;;2240098;56;20981;-71
2021/07/11 11:19:12;;;;;;;2.75;0.90;;;25.90;63.30;;;;;;2286102;56;21017;-73
2021/07/11 11:21:38;;;;;;;2.28;0.93;;;25.90;63.70;;;;;;2225636;56;22431;-72
2021/07/11 11:24:05;;;;;;;1.62;0.62;;;25.90;64.30;;;;;;2241532;56;20981;-71
2021/07/11 11:26:31;;;;;;;2.28;1.15;;;25.90;63.90;;;;;;2324524;55;20997;-69
2021/07/11 11:28:59;;;;;;;1.65;0.77;;;26.00;63.50;;;;;;2247165;56;21030;-71
2021/07/11 11:31:33;;;;;;;2.45;1.00;;;26.00;63.10;;;;;;2239885;56;21028;-71
2021/07/11 11:34:08;;;;;;;2.05;0.90;;;26.10;63.40;;;;;;2242380;56;20977;-72
2021/07/11 11:36:48;;;;;;;2.80;0.85;;;26.10;62.60;;;;;;2243184;56;20977;-72
2021/07/11 11:39:36;;;;;;;1.90;0.90;;;26.10;61.90;;;;;;2458108;55;20934;-70
2021/07/11 11:42:05;;;;;;;1.95;0.90;;;26.20;61.40;;;;;;2247617;56;20981;-70
2021/07/11 11:44:32;;;;;;;2.28;0.60;;;26.20;62.70;;;;;;2266937;55;21023;-71
2021/07/11 11:47:00;;;;;;;2.40;1.10;;;26.20;62.40;;;;;;2243340;56;20985;-71
2021/07/11 11:49:30;;;;;;;1.87;0.82;;;26.20;62.20;;;;;;2241765;56;20988;-72
2021/07/11 11:52:00;;;;;;;2.30;1.00;;;26.20;61.50;;;;;;2244688;56;20954;-71
2021/07/11 11:54:44;;;;;;;1.90;1.00;;;26.10;61.80;;;;;;2239531;56;20962;-72
2021/07/11 11:57:11;;;;;;;1.42;0.60;;;26.20;62.00;;;;;;2289782;55;21100;-73
2021/07/11 11:59:38;;;;;;;1.90;0.90;;;26.20;62.00;;;;;;2245479;56;20976;-70
2021/07/11 12:02:10;;;;;;;1.90;0.70;;;26.20;61.60;;;;;;2410850;55;20938;-73
2021/07/11 12:04:37;;;;;;;1.65;0.60;;;26.20;61.20;;;;;;2244233;56;20976;-72
2021/07/11 12:07:05;;;;;;;1.87;0.85;;;26.20;61.50;;;;;;2314004;56;21030;-69
2021/07/11 12:09:33;;;;;;;1.87;0.70;;;26.20;61.50;;;;;;2245653;56;20985;-70
2021/07/11 12:12:09;;;;;;;1.45;0.60;;;26.20;61.30;;;;;;2240901;56;20918;-72
2021/07/11 12:14:36;;;;;;;1.15;0.60;;;26.20;60.50;;;;;;2246586;56;21105;-70
2021/07/11 12:17:04;;;;;;;1.52;0.70;;;26.20;61.30;;;;;;2425341;55;20970;-70
2021/07/11 12:19:43;;;;;;;1.75;0.80;;;26.20;61.20;;;;;;2247726;56;20977;-72
2021/07/11 12:22:16;;;;;;;1.35;0.60;;;26.30;60.20;;;;;;2435497;55;21057;-71
2021/07/11 12:24:45;;;;;;;1.45;0.62;;;26.30;60.60;;;;;;2250315;56;21866;-71
2021/07/11 12:27:13;;;;;;;2.62;0.70;;;26.30;60.80;;;;;;2443722;55;20998;-70
2021/07/11 12:29:40;;;;;;;1.40;0.70;;;26.30;61.00;;;;;;2215042;56;20955;-73
2021/07/11 12:32:06;;;;;;;1.50;0.70;;;26.30;61.20;;;;;;2225518;57;21020;-72
2021/07/11 12:34:33;;;;;;;1.83;0.70;;;26.30;61.30;;;;;;2445921;55;21759;-69
2021/07/11 12:37:07;;;;;;;1.60;0.70;;;26.40;61.10;;;;;;2236143;56;20949;-72
2021/07/11 12:39:37;;;;;;;1.50;0.60;;;26.40;60.00;;;;;;2190747;57;21088;-70
2021/07/11 12:42:14;;;;;;;1.25;0.50;;;26.50;60.40;;;;;;2213642;56;20989;-73
2021/07/11 12:44:42;;;;;;;1.33;0.60;;;26.50;59.80;;;;;;2247875;56;20977;-73
2021/07/11 12:47:16;;;;;;;1.62;0.70;;;26.50;60.50;;;;;;2252061;56;21054;-74
2021/07/11 12:49:55;;;;;;;1.42;0.60;;;26.60;60.60;;;;;;2249936;56;21010;-69
2021/07/11 12:52:25;;;;;;;1.92;0.77;;;26.60;59.40;;;;;;2471903;55;21030;-72
2021/07/11 12:54:54;;;;;;;0.82;0.50;;;26.70;60.60;;;;;;2252919;56;21021;-72
2021/07/11 12:57:26;;;;;;;1.20;0.57;;;26.70;60.90;;;;;;2472680;55;21034;-73